createdAt,value
2023-02-14T00:01:16.979Z,2.08
2023-02-14T00:03:44.481Z,2.28
2023-02-14T00:06:14.012Z,2.01
2023-02-14T00:08:44.325Z,2.10
2023-02-14T00:11:12.390Z,1.92
2023-02-14T00:14:01.261Z,1.74
2023-02-14T00:16:27.855Z,1.44
2023-02-14T00:19:04.681Z,1.38
2023-02-14T00:21:32.938Z,1.61
2023-02-14T00:24:00.451Z,1.60
2023-02-14T00:26:27.977Z,1.19
2023-02-14T00:28:56.837Z,0.99
2023-02-14T00:31:24.773Z,0.96
2023-02-14T00:33:52.326Z,0.87
2023-02-14T00:36:20.954Z,0.82
2023-02-14T00:38:48.466Z,0.84
2023-02-14T00:41:19.207Z,0.75
2023-02-14T00:43:47.752Z,0.65
2023-02-14T00:46:17.412Z,0.53
2023-02-14T00:48:44.957Z,0.25
2023-02-14T00:51:12.547Z,0.25
2023-02-14T00:53:40.442Z,0.43
2023-02-14T00:56:08.716Z,0.45
2023-02-14T00:58:36.254Z,0.48
2023-02-14T01:01:03.901Z,0.47
2023-02-14T01:03:33.569Z,0.62
2023-02-14T01:06:01.178Z,0.90
2023-02-14T01:08:28.754Z,0.89
2023-02-14T01:10:56.232Z,0.85
2023-02-14T01:13:23.765Z,0.85
2023-02-14T01:15:53.007Z,0.72
2023-02-14T01:18:20.494Z,0.68
2023-02-14T01:20:49.435Z,0.62
2023-02-14T01:23:16.889Z,0.51
2023-02-14T01:25:44.370Z,0.65
2023-02-14T01:28:11.902Z,0.60
2023-02-14T01:30:39.483Z,0.37
2023-02-14T01:33:06.981Z,0.40
2023-02-14T01:35:38.515Z,0.34
2023-02-14T01:38:07.570Z,0.36
2023-02-14T01:40:35.416Z,0.43
2023-02-14T01:43:02.846Z,0.26
2023-02-14T01:45:31.903Z,0.11
2023-02-14T01:47:59.575Z,0.04
2023-02-14T01:50:29.725Z,0.12
2023-02-14T01:53:00.136Z,0.22
2023-02-14T01:55:31.533Z,0.11
2023-02-14T01:58:01.669Z,0.13
2023-02-14T02:00:52.063Z,0.26
2023-02-14T02:03:20.372Z,-0.05
2023-02-14T02:05:49.925Z,-0.35
2023-02-14T02:08:17.666Z,-0.15
2023-02-14T02:10:46.488Z,0.03
2023-02-14T02:13:17.770Z,0.06
2023-02-14T02:15:51.561Z,0.03
2023-02-14T02:18:25.114Z,-0.14
2023-02-14T02:21:12.161Z,-0.15
2023-02-14T02:23:57.717Z,-0.21
2023-02-14T02:26:58.756Z,-0.21
2023-02-14T02:29:49.392Z,-0.21
2023-02-14T02:32:40.655Z,-0.21
2023-02-14T02:35:22.075Z,-0.10
2023-02-14T02:37:59.839Z,-0.21
2023-02-14T02:40:37.540Z,-0.20
2023-02-14T02:43:16.763Z,-0.14
2023-02-14T02:46:05.893Z,-0.12
2023-02-14T02:48:38.348Z,-0.01
2023-02-14T02:51:28.000Z,0.00
2023-02-14T02:54:00.188Z,-0.21
2023-02-14T02:56:46.724Z,-0.36
2023-02-14T02:59:19.095Z,-0.48
2023-02-14T03:01:50.893Z,-0.32
2023-02-14T03:04:37.337Z,-0.15
2023-02-14T03:07:27.045Z,-0.28
2023-02-14T03:09:57.737Z,-0.40
2023-02-14T03:13:07.913Z,-0.24
2023-02-14T03:15:42.638Z,-0.12
2023-02-14T03:18:33.948Z,-0.15
2023-02-14T03:21:07.822Z,-0.17
2023-02-14T03:23:40.283Z,-0.17
2023-02-14T03:26:15.041Z,-0.21
2023-02-14T03:28:46.007Z,-0.27
2023-02-14T03:31:21.330Z,-0.36
2023-02-14T03:33:52.268Z,-0.46
2023-02-14T03:36:22.878Z,-0.46
2023-02-14T03:38:56.102Z,-0.39
2023-02-14T03:41:27.291Z,-0.24
2023-02-14T03:43:58.227Z,-0.20
2023-02-14T03:46:29.231Z,0.00
2023-02-14T03:48:59.319Z,0.14
2023-02-14T03:51:27.523Z,0.24
2023-02-14T03:53:58.077Z,0.22
2023-02-14T03:56:31.107Z,0.36
2023-02-14T03:59:01.383Z,0.48
2023-02-14T04:01:32.016Z,0.72
2023-02-14T04:04:00.239Z,0.78
2023-02-14T04:06:27.750Z,0.96
2023-02-14T04:08:56.674Z,1.02
2023-02-14T04:11:24.704Z,1.07
2023-02-14T04:13:52.287Z,1.00
2023-02-14T04:16:19.792Z,0.99
2023-02-14T04:19:05.080Z,1.05
2023-02-14T04:21:32.627Z,0.97
2023-02-14T04:24:01.484Z,1.08
2023-02-14T04:26:28.993Z,1.08
2023-02-14T04:28:56.454Z,1.14
2023-02-14T04:31:24.051Z,1.00
2023-02-14T04:33:51.565Z,0.98
2023-02-14T04:36:19.056Z,0.76
2023-02-14T04:38:46.546Z,0.61
2023-02-14T04:41:15.337Z,0.44
2023-02-14T04:43:42.822Z,0.45
2023-02-14T04:46:10.296Z,0.69
2023-02-14T04:48:37.793Z,0.46
2023-02-14T04:51:06.706Z,-0.14
2023-02-14T04:53:40.038Z,-0.10
2023-02-14T04:56:07.953Z,-0.10
2023-02-14T04:58:36.822Z,-0.26
2023-02-14T05:01:04.383Z,-0.40
2023-02-14T05:03:32.008Z,-0.31
2023-02-14T05:05:59.447Z,-0.35
2023-02-14T05:08:26.914Z,-0.02
2023-02-14T05:10:55.615Z,-0.26
2023-02-14T05:13:23.362Z,0.19
2023-02-14T05:15:52.247Z,0.27
2023-02-14T05:18:19.764Z,0.47
2023-02-14T05:20:50.233Z,0.43
2023-02-14T05:23:17.768Z,0.54
2023-02-14T05:25:45.382Z,0.57
2023-02-14T05:28:12.910Z,0.60
2023-02-14T05:30:40.879Z,0.61
2023-02-14T05:33:09.893Z,0.63
2023-02-14T05:35:37.586Z,0.59
2023-02-14T05:38:05.268Z,0.63
2023-02-14T05:40:32.902Z,0.77
2023-02-14T05:43:00.443Z,0.84
2023-02-14T05:45:27.991Z,0.92
2023-02-14T05:47:55.481Z,0.89
2023-02-14T05:50:24.400Z,0.74
2023-02-14T05:52:51.890Z,0.88
2023-02-14T05:55:19.433Z,0.73
2023-02-14T05:57:46.957Z,0.76
2023-02-14T06:00:15.758Z,0.72
2023-02-14T06:02:43.261Z,0.98
2023-02-14T06:05:10.763Z,1.01
2023-02-14T06:07:39.607Z,1.00
2023-02-14T06:10:09.793Z,1.04
2023-02-14T06:12:37.332Z,1.12
2023-02-14T06:15:05.477Z,1.11
2023-02-14T06:17:32.924Z,1.11
2023-02-14T06:20:45.360Z,1.19
2023-02-14T06:23:14.296Z,1.23
2023-02-14T06:25:41.799Z,1.25
2023-02-14T06:28:09.278Z,1.27
2023-02-14T06:30:36.868Z,1.24
2023-02-14T06:33:04.688Z,1.34
2023-02-14T06:35:32.219Z,1.29
2023-02-14T06:38:00.075Z,1.37
2023-02-14T06:40:28.943Z,1.52
2023-02-14T06:42:56.394Z,1.42
2023-02-14T06:45:24.120Z,1.59
2023-02-14T06:47:51.580Z,1.65
2023-02-14T06:50:19.275Z,1.74
2023-02-14T06:52:47.325Z,1.72
2023-02-14T06:55:14.845Z,1.77
2023-02-14T06:57:43.654Z,1.75
2023-02-14T07:00:11.909Z,1.68
2023-02-14T07:02:39.393Z,1.65
2023-02-14T07:05:07.283Z,1.74
2023-02-14T07:07:34.733Z,1.87
2023-02-14T07:10:02.198Z,1.77
2023-02-14T07:12:29.649Z,1.66
2023-02-14T07:14:58.519Z,1.73
2023-02-14T07:17:26.003Z,1.70
2023-02-14T07:19:53.503Z,1.65
2023-02-14T07:22:20.951Z,1.66
2023-02-14T07:24:48.457Z,1.82
2023-02-14T07:27:15.941Z,1.85
2023-02-14T07:29:43.440Z,1.88
2023-02-14T07:32:12.423Z,1.92
2023-02-14T07:34:40.014Z,1.98
2023-02-14T07:37:07.542Z,1.99
2023-02-14T07:39:35.152Z,1.94
2023-02-14T07:42:02.835Z,1.90
2023-02-14T07:44:30.337Z,1.79
2023-02-14T07:46:57.819Z,1.81
2023-02-14T07:49:26.623Z,1.88
2023-02-14T07:51:54.165Z,1.96
2023-02-14T07:54:21.676Z,1.96
2023-02-14T07:56:49.305Z,2.12
2023-02-14T07:59:16.900Z,2.03
2023-02-14T08:01:44.643Z,1.84
2023-02-14T08:04:16.350Z,1.82
2023-02-14T08:06:45.297Z,1.88
2023-02-14T08:09:24.423Z,1.75
2023-02-14T08:12:10.094Z,1.75
2023-02-14T08:14:37.718Z,1.94
2023-02-14T08:17:07.201Z,1.97
2023-02-14T08:19:34.781Z,2.22
2023-02-14T08:22:04.475Z,2.28
2023-02-14T08:24:32.011Z,2.40
2023-02-14T08:26:59.577Z,2.53
2023-02-14T08:29:27.157Z,2.43
2023-02-14T08:31:54.811Z,2.11
2023-02-14T08:34:22.364Z,2.17
2023-02-14T08:36:49.940Z,2.10
2023-02-14T08:39:18.879Z,2.32
2023-02-14T08:41:46.336Z,2.28
2023-02-14T08:44:14.092Z,2.34
2023-02-14T08:46:41.749Z,2.26
2023-02-14T08:49:10.796Z,2.39
2023-02-14T08:51:38.283Z,2.54
2023-02-14T08:54:05.921Z,2.65
2023-02-14T08:56:35.311Z,2.86
2023-02-14T08:59:03.962Z,2.91
2023-02-14T09:01:31.515Z,2.72
2023-02-14T09:03:59.092Z,2.80
2023-02-14T09:06:26.625Z,2.68
2023-02-14T09:08:55.085Z,2.74
2023-02-14T09:11:24.360Z,2.74
2023-02-14T09:13:54.079Z,2.66
2023-02-14T09:16:22.482Z,2.60
2023-02-14T09:18:50.553Z,2.56
2023-02-14T09:21:20.249Z,2.82
2023-02-14T09:23:47.699Z,2.94
2023-02-14T09:26:16.212Z,2.78
2023-02-14T09:28:43.923Z,2.66
2023-02-14T09:31:15.333Z,2.75
2023-02-14T09:34:00.954Z,2.94
2023-02-14T09:36:28.621Z,3.02
2023-02-14T09:38:56.124Z,3.11
2023-02-14T09:41:54.677Z,2.76
2023-02-14T09:44:27.615Z,2.62
2023-02-14T09:46:58.582Z,2.91
2023-02-14T09:49:31.197Z,3.06
2023-02-14T09:51:59.487Z,3.10
2023-02-14T09:54:29.395Z,2.60
2023-02-14T09:57:00.164Z,2.79
2023-02-14T09:59:34.288Z,3.07
2023-02-14T10:02:16.325Z,3.25
2023-02-14T10:04:46.487Z,2.99
2023-02-14T10:07:20.887Z,2.82
2023-02-14T10:09:55.368Z,2.86
2023-02-14T10:12:25.376Z,2.93
2023-02-14T10:14:54.504Z,2.93
2023-02-14T10:17:29.100Z,2.81
2023-02-14T10:20:01.055Z,2.62
2023-02-14T10:22:41.203Z,2.34
2023-02-14T10:25:15.510Z,2.28
2023-02-14T10:27:46.202Z,2.52
2023-02-14T10:30:17.749Z,2.63
2023-02-14T10:32:49.974Z,2.40
2023-02-14T10:35:24.694Z,2.61
2023-02-14T10:38:01.405Z,2.88
2023-02-14T10:41:06.524Z,3.01
2023-02-14T10:43:40.239Z,3.19
2023-02-14T10:46:13.516Z,3.15
2023-02-14T10:48:50.068Z,3.19
2023-02-14T10:51:21.247Z,3.39
2023-02-14T10:53:56.747Z,3.07
2023-02-14T10:56:27.877Z,3.05
2023-02-14T10:58:57.791Z,2.62
2023-02-14T11:01:26.103Z,2.68
2023-02-14T11:03:58.476Z,2.51
2023-02-14T11:06:26.024Z,2.43
2023-02-14T11:08:55.586Z,2.33
2023-02-14T11:11:28.332Z,2.49
2023-02-14T11:13:55.871Z,2.49
2023-02-14T11:16:30.817Z,2.47
2023-02-14T11:19:11.327Z,2.73
2023-02-14T11:21:39.839Z,2.92
2023-02-14T11:24:18.594Z,3.07
2023-02-14T11:26:48.241Z,3.19
2023-02-14T11:29:27.893Z,3.09
2023-02-14T11:31:55.687Z,3.09
2023-02-14T11:34:33.522Z,3.44
2023-02-14T11:37:01.267Z,3.35
2023-02-14T11:39:31.440Z,3.69
2023-02-14T11:42:00.764Z,3.77
2023-02-14T11:44:33.051Z,3.73
2023-02-14T11:47:19.784Z,3.81
2023-02-14T11:49:58.101Z,4.04
2023-02-14T11:52:29.570Z,4.13
2023-02-14T11:54:58.071Z,4.28
2023-02-14T11:57:28.685Z,4.19
2023-02-14T11:59:57.082Z,4.22
2023-02-14T12:02:40.125Z,4.24
2023-02-14T12:05:20.855Z,4.36
2023-02-14T12:07:49.636Z,4.35
2023-02-14T12:10:21.362Z,4.02
2023-02-14T12:12:53.849Z,3.94
2023-02-14T12:15:37.668Z,3.79
2023-02-14T12:18:30.131Z,3.46
2023-02-14T12:21:02.318Z,3.64
2023-02-14T12:23:36.815Z,3.81
2023-02-14T12:26:07.387Z,3.89
2023-02-14T12:28:41.302Z,4.21
2023-02-14T12:31:11.292Z,4.28
2023-02-14T12:33:39.683Z,4.50
2023-02-14T12:36:14.157Z,4.24
2023-02-14T12:38:49.574Z,4.21
2023-02-14T12:41:26.008Z,4.32
2023-02-14T12:43:54.553Z,4.28
2023-02-14T12:46:34.451Z,4.38
2023-02-14T12:49:14.862Z,4.39
2023-02-14T12:51:50.338Z,4.38
2023-02-14T12:54:29.258Z,4.38
2023-02-14T12:57:01.417Z,4.24
2023-02-14T12:59:32.877Z,4.17
2023-02-14T13:02:31.077Z,4.23
2023-02-14T13:05:01.551Z,4.35
2023-02-14T13:08:05.005Z,4.55
2023-02-14T13:10:46.427Z,4.66
2023-02-14T13:13:21.404Z,4.77
2023-02-14T13:15:54.915Z,4.86
2023-02-14T13:18:33.547Z,4.88
2023-02-14T13:21:02.847Z,4.57
2023-02-14T13:23:35.951Z,4.57
2023-02-14T13:26:07.815Z,4.58
2023-02-14T13:28:37.480Z,4.66
2023-02-14T13:31:06.025Z,5.04
2023-02-14T13:33:36.290Z,4.91
2023-02-14T13:36:07.692Z,5.10
2023-02-14T13:38:40.563Z,5.27
2023-02-14T13:41:08.464Z,5.32
2023-02-14T13:43:46.882Z,4.66
2023-02-14T13:46:14.916Z,4.84
2023-02-14T13:48:43.449Z,5.17
2023-02-14T13:51:11.349Z,5.28
2023-02-14T13:53:42.062Z,5.23
2023-02-14T13:56:32.458Z,5.34
2023-02-14T13:59:04.351Z,5.25
2023-02-14T14:01:35.678Z,5.35
2023-02-14T14:04:06.271Z,5.19
2023-02-14T14:07:08.046Z,5.06
2023-02-14T14:10:01.442Z,4.62
2023-02-14T14:12:45.119Z,4.42
2023-02-14T14:15:21.963Z,4.38
2023-02-14T14:18:34.174Z,4.38
2023-02-14T14:21:01.658Z,4.21
2023-02-14T14:23:31.964Z,4.17
2023-02-14T14:26:01.456Z,4.52
2023-02-14T14:28:31.622Z,4.50
2023-02-14T14:30:59.393Z,4.51
2023-02-14T14:33:30.001Z,4.49
2023-02-14T14:35:59.660Z,4.35
2023-02-14T14:38:27.646Z,4.49
2023-02-14T14:40:55.613Z,4.53
2023-02-14T14:43:27.852Z,4.42
2023-02-14T14:45:56.146Z,4.36
2023-02-14T14:48:28.940Z,4.09
2023-02-14T14:50:57.058Z,4.29
2023-02-14T14:53:28.025Z,4.45
2023-02-14T14:55:55.990Z,4.65
2023-02-14T14:58:39.613Z,4.79
2023-02-14T15:01:08.669Z,4.86
2023-02-14T15:03:36.172Z,5.11
2023-02-14T15:06:07.554Z,5.19
2023-02-14T15:08:35.912Z,5.17
2023-02-14T15:11:07.457Z,5.06
2023-02-14T15:13:50.986Z,5.08
2023-02-14T15:16:20.353Z,5.02
2023-02-14T15:18:48.116Z,5.13
2023-02-14T15:21:16.504Z,5.06
2023-02-14T15:23:44.979Z,5.03
2023-02-14T15:26:18.741Z,5.00
2023-02-14T15:28:55.588Z,5.07
2023-02-14T15:31:23.715Z,4.98
2023-02-14T15:33:51.561Z,4.97
2023-02-14T15:36:21.374Z,4.91
2023-02-14T15:38:49.039Z,4.98
2023-02-14T15:41:17.765Z,4.74
2023-02-14T15:43:53.565Z,4.86
2023-02-14T15:46:29.845Z,4.89
2023-02-14T15:49:01.012Z,4.83
2023-02-14T15:51:30.789Z,4.85
2023-02-14T15:54:00.325Z,4.84
2023-02-14T15:56:29.566Z,4.66
2023-02-14T15:59:01.947Z,4.48
2023-02-14T16:01:30.716Z,4.42
2023-02-14T16:04:00.146Z,4.49
2023-02-14T16:06:38.632Z,4.61
2023-02-14T16:09:08.337Z,4.46
2023-02-14T16:11:37.172Z,4.53
2023-02-14T16:14:32.496Z,4.50
2023-02-14T16:17:02.359Z,4.55
2023-02-14T16:19:34.590Z,4.60
2023-02-14T16:22:02.481Z,4.55
2023-02-14T16:24:29.981Z,4.48
2023-02-14T16:26:58.129Z,4.37
2023-02-14T16:29:25.595Z,4.21
2023-02-14T16:32:14.478Z,4.02
2023-02-14T16:34:43.491Z,4.10
2023-02-14T16:37:21.233Z,4.09
2023-02-14T16:39:49.149Z,4.07
2023-02-14T16:42:17.767Z,4.00
2023-02-14T16:44:45.636Z,3.96
2023-02-14T16:47:15.787Z,3.78
2023-02-14T16:49:43.364Z,3.74
2023-02-14T16:52:13.374Z,3.65
2023-02-14T16:54:41.002Z,3.64
2023-02-14T16:57:13.689Z,3.74
2023-02-14T16:59:41.146Z,3.66
2023-02-14T17:02:08.754Z,3.58
2023-02-14T17:04:37.630Z,3.40
2023-02-14T17:07:06.604Z,3.27
2023-02-14T17:09:36.973Z,3.34
2023-02-14T17:12:08.322Z,3.32
2023-02-14T17:14:37.877Z,3.19
2023-02-14T17:17:05.378Z,3.08
2023-02-14T17:19:33.146Z,2.98
2023-02-14T17:22:01.955Z,2.53
2023-02-14T17:24:29.662Z,2.69
2023-02-14T17:26:57.149Z,2.80
2023-02-14T17:29:24.651Z,2.46
2023-02-14T17:31:52.168Z,2.09
2023-02-14T17:34:21.820Z,1.85
2023-02-14T17:36:49.326Z,1.82
2023-02-14T17:39:19.819Z,2.00
2023-02-14T17:41:47.430Z,1.81
2023-02-14T17:44:14.935Z,1.73
2023-02-14T17:46:42.563Z,1.80
2023-02-14T17:49:10.360Z,1.52
2023-02-14T17:51:37.926Z,1.31
2023-02-14T17:54:05.491Z,1.48
2023-02-14T17:56:34.402Z,1.61
2023-02-14T17:59:01.884Z,1.31
2023-02-14T18:01:34.224Z,1.16
2023-02-14T18:04:01.864Z,1.34
2023-02-14T18:06:29.423Z,1.46
2023-02-14T18:08:57.638Z,1.27
2023-02-14T18:11:26.764Z,1.22
2023-02-14T18:13:56.128Z,1.59
2023-02-14T18:16:24.661Z,1.37
2023-02-14T18:18:54.956Z,1.26
2023-02-14T18:21:25.855Z,1.40
2023-02-14T18:23:53.633Z,1.29
2023-02-14T18:26:23.566Z,1.15
2023-02-14T18:28:51.951Z,0.72
2023-02-14T18:31:21.684Z,0.66
2023-02-14T18:33:51.194Z,0.49
2023-02-14T18:36:20.624Z,0.37
2023-02-14T18:38:49.792Z,0.52
2023-02-14T18:41:19.450Z,0.59
2023-02-14T18:43:50.971Z,0.57
2023-02-14T18:46:22.204Z,0.52
2023-02-14T18:48:51.699Z,0.79
2023-02-14T18:51:24.490Z,0.96
2023-02-14T18:53:52.815Z,1.23
2023-02-14T18:56:22.442Z,0.95
2023-02-14T18:58:52.869Z,0.66
2023-02-14T19:01:22.285Z,0.71
2023-02-14T19:03:52.848Z,0.67
2023-02-14T19:06:21.245Z,0.50
2023-02-14T19:08:49.066Z,0.34
2023-02-14T19:11:18.284Z,0.25
2023-02-14T19:13:46.284Z,0.22
2023-02-14T19:16:17.643Z,0.37
2023-02-14T19:18:45.733Z,0.38
2023-02-14T19:21:15.568Z,0.38
2023-02-14T19:23:47.006Z,0.35
2023-02-14T19:26:19.052Z,0.33
2023-02-14T19:28:48.236Z,0.44
2023-02-14T19:31:17.844Z,0.67
2023-02-14T19:33:48.019Z,0.76
2023-02-14T19:36:20.536Z,0.93
2023-02-14T19:38:50.299Z,0.95
2023-02-14T19:41:19.756Z,1.12
2023-02-14T19:43:48.881Z,1.25
2023-02-14T19:46:17.887Z,1.31
2023-02-14T19:48:45.904Z,1.21
2023-02-14T19:51:19.966Z,1.23
2023-02-14T19:53:48.795Z,1.27
2023-02-14T19:56:23.629Z,1.31
2023-02-14T19:58:52.119Z,1.32
2023-02-14T20:01:27.962Z,1.44
2023-02-14T20:03:56.063Z,1.50
2023-02-14T20:06:26.154Z,1.50
2023-02-14T20:08:54.210Z,1.50
2023-02-14T20:11:30.437Z,1.50
2023-02-14T20:13:58.712Z,1.49
2023-02-14T20:16:27.468Z,1.48
2023-02-14T20:18:55.567Z,1.53
2023-02-14T20:21:28.297Z,1.53
2023-02-14T20:23:58.596Z,1.57
2023-02-14T20:26:26.401Z,1.64
2023-02-14T20:28:54.831Z,1.74
2023-02-14T20:31:22.782Z,1.82
2023-02-14T20:33:51.484Z,1.80
2023-02-14T20:36:19.519Z,2.02
2023-02-14T20:38:55.411Z,2.05
2023-02-14T20:41:23.558Z,1.98
2023-02-14T20:43:53.226Z,1.96
2023-02-14T20:46:21.409Z,1.91
2023-02-14T20:48:51.043Z,1.85
2023-02-14T20:51:20.795Z,1.79
2023-02-14T20:53:53.231Z,1.75
2023-02-14T20:56:24.648Z,1.83
2023-02-14T20:58:52.574Z,1.80
2023-02-14T21:01:21.636Z,1.95
2023-02-14T21:03:52.456Z,2.03
2023-02-14T21:06:21.619Z,2.07
2023-02-14T21:08:51.167Z,2.14
2023-02-14T21:11:20.598Z,2.00
2023-02-14T21:13:51.524Z,1.88
2023-02-14T21:16:20.881Z,1.93
2023-02-14T21:18:52.441Z,2.07
2023-02-14T21:21:24.231Z,2.09
2023-02-14T21:23:56.356Z,2.06
2023-02-14T21:26:24.624Z,2.09
2023-02-14T21:28:52.478Z,2.17
2023-02-14T21:31:21.962Z,2.39
2023-02-14T21:33:50.996Z,2.32
2023-02-14T21:36:19.791Z,2.41
2023-02-14T21:38:49.812Z,2.39
2023-02-14T21:41:20.461Z,2.56
2023-02-14T21:43:49.589Z,2.44
2023-02-14T21:46:18.526Z,2.42
2023-02-14T21:49:03.922Z,2.46
2023-02-14T21:51:34.046Z,2.41
2023-02-14T21:54:01.693Z,2.47
2023-02-14T21:56:30.782Z,2.55
2023-02-14T21:58:58.621Z,2.58
2023-02-14T22:01:27.940Z,2.68
2023-02-14T22:03:56.546Z,2.65
2023-02-14T22:06:24.416Z,2.51
2023-02-14T22:08:54.489Z,2.54
2023-02-14T22:11:22.818Z,2.58
2023-02-14T22:13:51.961Z,2.27
2023-02-14T22:16:23.708Z,2.48
2023-02-14T22:18:53.415Z,2.55
2023-02-14T22:21:23.451Z,2.35
2023-02-14T22:23:52.102Z,2.47
2023-02-14T22:26:22.828Z,2.43
2023-02-14T22:28:53.796Z,2.18
2023-02-14T22:31:22.117Z,2.03
2023-02-14T22:33:51.395Z,1.99
2023-02-14T22:36:19.069Z,1.85
2023-02-14T22:38:48.243Z,1.86
2023-02-14T22:41:18.134Z,1.97
2023-02-14T22:43:46.303Z,2.06
2023-02-14T22:46:17.988Z,1.93
2023-02-14T22:48:45.694Z,2.20
2023-02-14T22:51:19.650Z,2.38
2023-02-14T22:53:49.134Z,2.53
2023-02-14T22:56:21.611Z,2.51
2023-02-14T22:58:58.681Z,2.39
2023-02-14T23:01:28.602Z,2.40
2023-02-14T23:03:57.815Z,2.24
2023-02-14T23:06:27.528Z,2.24
2023-02-14T23:08:57.177Z,2.39
2023-02-14T23:11:35.188Z,2.57
2023-02-14T23:14:23.580Z,2.30
2023-02-14T23:17:10.170Z,2.26
2023-02-14T23:19:55.928Z,2.16
2023-02-14T23:22:25.167Z,2.35
2023-02-14T23:24:57.085Z,2.13
2023-02-14T23:27:27.302Z,2.21
2023-02-14T23:29:54.833Z,2.41
2023-02-14T23:32:23.751Z,2.50
2023-02-14T23:34:52.260Z,2.52
2023-02-14T23:37:19.885Z,2.32
2023-02-14T23:39:49.767Z,2.42
2023-02-14T23:42:17.307Z,2.31
2023-02-14T23:44:45.405Z,2.41
2023-02-14T23:47:13.972Z,2.45
2023-02-14T23:49:43.550Z,2.30
2023-02-14T23:52:12.939Z,2.36
2023-02-14T23:54:40.650Z,2.29
2023-02-14T23:57:08.878Z,2.33
2023-02-14T23:59:36.772Z,2.26
